createdAt,value
2023-03-03T00:03:11.274Z,98300.28
2023-03-03T00:08:12.779Z,98300.91
2023-03-03T00:13:19.993Z,98306.38
2023-03-03T00:18:28.650Z,98312.38
2023-03-03T00:23:43.131Z,98304.72
2023-03-03T00:28:47.187Z,98312.13
2023-03-03T00:33:55.636Z,98304.22
2023-03-03T00:39:31.448Z,98300.09
2023-03-03T00:45:00.140Z,98315.88
2023-03-03T00:50:07.552Z,98306.09
2023-03-03T00:55:09.097Z,98307.50
2023-03-03T01:00:11.630Z,98306.97
2023-03-03T01:05:15.181Z,98315.47
2023-03-03T01:10:18.215Z,98308.59
2023-03-03T01:15:19.694Z,98319.31
2023-03-03T01:20:21.869Z,98323.72
2023-03-03T01:25:23.572Z,98323.16
2023-03-03T01:30:25.742Z,98323.97
2023-03-03T01:35:27.276Z,98324.38
2023-03-03T01:40:31.006Z,98325.69
2023-03-03T01:45:53.770Z,98317.31
2023-03-03T01:51:00.144Z,98318.81
2023-03-03T01:56:02.875Z,98311.78
2023-03-03T02:01:13.420Z,98296.56
2023-03-03T02:06:17.663Z,98300.13
2023-03-03T02:11:21.347Z,98294.78
2023-03-03T02:16:22.826Z,98293.84
2023-03-03T02:21:28.126Z,98287.00
2023-03-03T02:26:32.103Z,98288.38
2023-03-03T02:31:38.675Z,98298.25
2023-03-03T02:36:40.448Z,98306.13
2023-03-03T02:41:58.818Z,98296.13
2023-03-03T02:47:06.804Z,98296.31
2023-03-03T02:52:10.543Z,98291.59
2023-03-03T02:57:14.675Z,98307.59
2023-03-03T03:02:16.216Z,98300.97
2023-03-03T03:07:17.822Z,98299.78
2023-03-03T03:12:21.088Z,98315.72
2023-03-03T03:17:26.169Z,98322.47
2023-03-03T03:22:28.944Z,98316.19
2023-03-03T03:27:30.790Z,98315.31
2023-03-03T03:32:32.393Z,98317.41
2023-03-03T03:37:35.028Z,98317.28
2023-03-03T03:42:39.502Z,98318.03
2023-03-03T03:47:42.455Z,98299.78
2023-03-03T03:52:44.793Z,98291.63
2023-03-03T03:57:47.034Z,98299.59
2023-03-03T04:02:48.930Z,98314.47
2023-03-03T04:07:52.366Z,98332.66
2023-03-03T04:12:54.550Z,98326.97
2023-03-03T04:17:56.966Z,98330.16
2023-03-03T04:22:59.017Z,98333.91
2023-03-03T04:28:01.108Z,98336.25
2023-03-03T04:33:02.714Z,98332.16
2023-03-03T04:38:05.875Z,98345.78
2023-03-03T04:43:10.110Z,98345.28
2023-03-03T04:48:11.983Z,98348.63
2023-03-03T04:53:13.759Z,98359.66
2023-03-03T04:58:16.830Z,98354.22
2023-03-03T05:03:19.443Z,98355.47
2023-03-03T05:08:21.075Z,98355.78
2023-03-03T05:13:22.818Z,98354.25
2023-03-03T05:18:26.024Z,98365.56
2023-03-03T05:23:27.433Z,98352.25
2023-03-03T05:28:28.952Z,98352.16
2023-03-03T05:33:30.501Z,98353.94
2023-03-03T05:38:31.949Z,98361.25
2023-03-03T05:43:33.658Z,98344.13
2023-03-03T05:48:35.057Z,98355.66
2023-03-03T05:53:36.626Z,98366.28
2023-03-03T05:58:38.191Z,98359.44
2023-03-03T06:03:39.745Z,98365.31
2023-03-03T06:08:41.162Z,98358.63
2023-03-03T06:13:42.615Z,98362.63
2023-03-03T06:18:44.017Z,98356.09
2023-03-03T06:23:45.434Z,98347.53
2023-03-03T06:28:47.083Z,98355.97
2023-03-03T06:33:49.736Z,98361.03
2023-03-03T06:38:51.629Z,98356.41
2023-03-03T06:43:53.493Z,98377.19
2023-03-03T06:48:55.115Z,98392.28
2023-03-03T06:53:58.289Z,98401.69
2023-03-03T06:59:00.620Z,98389.06
2023-03-03T07:04:10.634Z,98386.75
2023-03-03T07:09:21.316Z,98405.66
2023-03-03T07:14:22.808Z,98413.50
2023-03-03T07:19:30.317Z,98411.84
2023-03-03T07:24:31.776Z,98403.78
2023-03-03T07:29:34.173Z,98405.06
2023-03-03T07:34:43.912Z,98404.44
2023-03-03T07:39:47.351Z,98426.81
2023-03-03T07:44:52.380Z,98428.56
2023-03-03T07:49:56.651Z,98450.63
2023-03-03T07:55:01.960Z,98447.06
2023-03-03T08:00:18.774Z,98445.28
2023-03-03T08:05:20.810Z,98435.53
2023-03-03T08:10:32.308Z,98430.28
2023-03-03T08:15:37.938Z,98424.41
2023-03-03T08:20:50.563Z,98437.00
2023-03-03T08:25:53.722Z,98430.81
2023-03-03T08:31:08.951Z,98435.34
2023-03-03T08:36:16.636Z,98439.81
2023-03-03T08:41:18.060Z,98430.28
2023-03-03T08:46:19.584Z,98433.22
2023-03-03T08:51:21.071Z,98442.41
2023-03-03T08:56:22.593Z,98445.94
2023-03-03T09:01:24.507Z,98457.41
2023-03-03T09:06:26.052Z,98453.63
2023-03-03T09:11:29.288Z,98450.28
2023-03-03T09:16:34.898Z,98448.16
2023-03-03T09:21:36.648Z,98461.84
2023-03-03T09:26:52.916Z,98467.72
2023-03-03T09:52:03.734Z,98483.31
2023-03-03T09:57:24.813Z,98498.44
2023-03-03T10:02:48.473Z,98497.25
2023-03-03T10:13:27.410Z,98475.13
2023-03-03T10:18:35.859Z,98472.50
2023-03-03T10:24:01.492Z,98486.47
2023-03-03T11:02:33.205Z,98489.63
2023-03-03T11:22:53.164Z,98490.91
2023-03-03T11:28:09.516Z,98488.47
2023-03-03T11:33:34.678Z,98476.50
2023-03-03T12:19:14.288Z,98467.44
2023-03-03T12:24:29.643Z,98464.28
2023-03-03T12:30:16.390Z,98459.59
2023-03-03T12:35:39.167Z,98458.34
2023-03-03T12:40:58.098Z,98444.25
2023-03-03T12:46:02.422Z,98450.66
2023-03-03T12:51:12.440Z,98444.44
2023-03-03T12:56:26.619Z,98445.19
2023-03-03T13:02:00.210Z,98438.78
2023-03-03T13:07:01.986Z,98429.94
2023-03-03T13:12:31.480Z,98440.66
2023-03-03T13:17:49.431Z,98442.16
2023-03-03T13:23:16.041Z,98443.00
2023-03-03T13:28:33.960Z,98443.81
2023-03-03T13:33:36.046Z,98429.09
2023-03-03T13:38:43.036Z,98431.81
2023-03-03T13:44:01.827Z,98430.13
2023-03-03T13:49:25.378Z,98427.28
2023-03-03T13:54:44.706Z,98420.00
2023-03-03T14:00:06.531Z,98422.53
2023-03-03T14:05:18.450Z,98410.56
2023-03-03T14:10:28.903Z,98408.97
2023-03-03T14:15:54.457Z,98404.72
2023-03-03T14:21:18.858Z,98395.56
2023-03-03T14:26:20.268Z,98394.97
2023-03-03T14:31:25.080Z,98392.66
2023-03-03T14:36:33.302Z,98390.47
2023-03-03T14:41:40.185Z,98380.38
2023-03-03T14:46:42.964Z,98378.41
2023-03-03T14:51:49.669Z,98376.50
2023-03-03T14:56:59.087Z,98373.75
2023-03-03T15:02:16.002Z,98379.25
2023-03-03T15:07:36.363Z,98364.53
2023-03-03T15:12:40.615Z,98372.38
2023-03-03T15:18:05.217Z,98370.31
2023-03-03T15:23:19.440Z,98378.81
2023-03-03T15:28:25.088Z,98383.25
2023-03-03T15:33:41.638Z,98375.91
2023-03-03T15:38:50.816Z,98378.91
2023-03-03T15:44:07.075Z,98373.41
2023-03-03T15:49:26.457Z,98365.53
2023-03-03T15:54:36.777Z,98370.81
2023-03-03T15:59:53.583Z,98374.91
2023-03-03T16:05:03.090Z,98380.25
2023-03-03T16:10:32.467Z,98372.69
2023-03-03T16:16:01.382Z,98380.16
2023-03-03T16:21:25.587Z,98371.25
2023-03-03T16:26:43.334Z,98381.19
2023-03-03T16:31:52.657Z,98372.06
2023-03-03T16:37:04.545Z,98381.84
2023-03-03T16:42:29.385Z,98381.41
2023-03-03T16:47:39.838Z,98387.09
2023-03-03T16:52:49.596Z,98374.03
2023-03-03T16:58:00.060Z,98380.16
2023-03-03T17:03:28.606Z,98376.59
2023-03-03T17:08:48.279Z,98382.88
2023-03-03T17:14:14.314Z,98381.22
2023-03-03T17:19:40.181Z,98380.03
2023-03-03T17:25:11.165Z,98370.91
2023-03-03T17:30:49.571Z,98373.53
2023-03-03T17:36:28.816Z,98375.94
2023-03-03T17:41:33.238Z,98381.19
2023-03-03T17:46:42.706Z,98386.22
2023-03-03T17:52:07.194Z,98402.00
2023-03-03T17:57:17.367Z,98394.84
2023-03-03T18:02:37.098Z,98392.09
2023-03-03T18:08:14.781Z,98396.94
2023-03-03T18:13:57.398Z,98390.19
2023-03-03T18:19:07.853Z,98394.72
2023-03-03T18:24:33.302Z,98390.19
2023-03-03T18:29:35.023Z,98391.44
2023-03-03T18:34:39.990Z,98399.31
2023-03-03T18:40:01.630Z,98398.63
2023-03-03T18:45:29.504Z,98397.44
2023-03-03T18:50:38.264Z,98398.41
2023-03-03T18:55:47.889Z,98410.16
2023-03-03T19:00:55.078Z,98403.50
2023-03-03T19:06:01.399Z,98398.97
2023-03-03T19:11:05.203Z,98391.09
2023-03-03T19:16:39.513Z,98400.44
2023-03-03T19:22:04.637Z,98400.22
2023-03-03T19:27:36.749Z,98406.00
2023-03-03T19:32:53.779Z,98391.16
2023-03-03T19:38:14.694Z,98401.66
2023-03-03T19:43:55.112Z,98391.16
2023-03-03T19:49:25.357Z,98398.94
2023-03-03T19:54:52.016Z,98394.28
2023-03-03T20:00:12.700Z,98395.03
2023-03-03T20:05:26.389Z,98392.41
2023-03-03T20:10:54.241Z,98388.59
2023-03-03T20:16:34.697Z,98393.84
2023-03-03T20:21:46.509Z,98386.94
2023-03-03T20:26:55.652Z,98381.06
2023-03-03T20:32:11.417Z,98385.13
2023-03-03T20:37:23.027Z,98374.59
2023-03-03T20:42:52.787Z,98370.09
2023-03-03T20:48:13.149Z,98372.81
2023-03-03T20:53:17.692Z,98365.88
2023-03-03T20:58:57.823Z,98366.81
2023-03-03T21:04:21.540Z,98362.50
2023-03-03T21:09:28.446Z,98363.56
2023-03-03T21:14:37.758Z,98352.59
2023-03-03T21:19:39.621Z,98355.13
2023-03-03T21:25:06.185Z,98337.06
2023-03-03T21:30:08.907Z,98339.91
2023-03-03T21:35:18.917Z,98342.66
2023-03-03T21:40:25.840Z,98333.06
2023-03-03T21:45:30.002Z,98331.97
2023-03-03T21:50:32.612Z,98326.19
2023-03-03T21:55:34.063Z,98325.13
2023-03-03T22:00:35.476Z,98328.25
2023-03-03T22:05:36.915Z,98325.31
2023-03-03T22:10:38.939Z,98331.53
2023-03-03T22:15:40.362Z,98333.97
2023-03-03T22:20:41.772Z,98330.00
2023-03-03T22:25:43.184Z,98333.34
2023-03-03T22:30:44.634Z,98332.50
2023-03-03T22:35:46.401Z,98317.69
2023-03-03T22:40:47.903Z,98313.41
2023-03-03T22:45:50.442Z,98305.00
2023-03-03T22:50:52.457Z,98303.31
2023-03-03T22:55:54.266Z,98299.13
2023-03-03T23:00:55.816Z,98295.66
2023-03-03T23:05:57.222Z,98288.84
2023-03-03T23:10:58.642Z,98287.78
2023-03-03T23:16:00.232Z,98281.78
2023-03-03T23:21:01.775Z,98274.72
2023-03-03T23:26:03.527Z,98265.28
2023-03-03T23:31:05.082Z,98261.72
2023-03-03T23:36:07.023Z,98261.50
2023-03-03T23:41:08.473Z,98261.38
2023-03-03T23:46:09.983Z,98256.72
2023-03-03T23:51:11.406Z,98260.09
2023-03-03T23:56:12.804Z,98254.69
